Have a Safe July 4th! 

Flight Track Log - Related Links

Times and Time Zones

All times are in EDT time to prevent confusion due to time zone crossing. See the N127UA flight status page for this flight to view local times or setup timezone preferences in your user account.

Time Position Orientation Groundspeed Altitude Reporting Facility
EDT Latitude Longitude Course Direction KTS MPH feet Rate Location/Type
Thu 02:50:15 PM 37.6323 -122.3417 286° West  Level FlightAware Approximate
Thu 02:51:15 PM 37.7152 -122.2181 256° West  Level FlightAware Approximate
Thu 02:52:20 PM 37.6636 -122.4819 303° West 167 192 3,000  Level Oakland Center
Thu 02:53:20 PM 37.6919 -122.5378 349° North 173 199 3,900 1,100 Climbing Oakland Center
Thu 02:54:20 PM 37.7628 -122.5550 27° Northeast 199 229 5,200 1,550 Climbing Oakland Center
Thu 02:55:20 PM 37.8364 -122.5067 61° Northeast 234 269 7,000 1,950 Climbing Oakland Center
Thu 02:56:20 PM 37.8814 -122.4050 42° Northeast 262 302 9,100 1,800 Climbing Oakland Center
Thu 02:57:20 PM 37.9575 -122.3194 26° Northeast 319 367 10,600 1,300 Climbing Oakland Center
Thu 02:58:20 PM 38.0606 -122.2556 North 381 438 11,700 1,500 Climbing Oakland Center
Thu 02:59:20 PM 38.1794 -122.2469 360° North 390 449 13,600 2,000 Climbing Oakland Center
Thu 03:00:20 PM 38.3025 -122.2464 359° North 412 474 15,700 2,281 Climbing Oakland Center
Thu 03:01:21 PM 38.4233 -122.2486 360° North 425 489 18,200 2,250 Climbing Oakland Center
Thu 03:02:20 PM 38.5444 -122.2481 North 425 489 20,200 1,866 Climbing Oakland Center
Thu 03:03:20 PM 38.6653 -122.2447 358° North 425 489 21,900 1,500 Climbing Oakland Center
Thu 03:04:20 PM 38.7883 -122.2497 360° North 430 495 23,200 1,400 Climbing Oakland Center
Thu 03:05:20 PM 38.9156 -122.2492 357° North 444 511 24,700 1,350 Climbing Oakland Center
Thu 03:06:20 PM 39.0469 -122.2594 351° North 454 522 25,900 1,100 Climbing Oakland Center
Thu 03:07:20 PM 39.1739 -122.2858 349° North 460 529 26,900 1,200 Climbing Oakland Center
Thu 03:08:20 PM 39.3006 -122.3178 349° North 466 536 28,300 1,300 Climbing Oakland Center
Thu 03:09:20 PM 39.4253 -122.3497 353° North 466 536 29,500 1,200 Climbing Oakland Center
Thu 03:10:20 PM 39.5503 -122.3683 350° North 461 531 30,700 950 Climbing Oakland Center
Thu 03:11:20 PM 39.6772 -122.3978 350° North 461 531 31,400 650 Climbing Oakland Center
Thu 03:12:20 PM 39.8039 -122.4272 349° North 461 531 32,000 298 Climbing Oakland Center
Thu 03:13:21 PM 39.9328 -122.4597 349° North 467 537 32,000  Level Oakland Center
Thu 03:14:20 PM 40.0594 -122.4922 350° North 467 537 32,000  Level Oakland Center
Thu 03:15:20 PM 40.2008 -122.5253 352° North 472 543 32,000  Level Oakland Center
Thu 03:16:20 PM 40.3256 -122.5497 350° North 462 532 32,000  Level Oakland Center
Thu 03:17:20 PM 40.4503 -122.5800 351° North 462 532 32,000  Level Oakland Center
Thu 03:18:20 PM 40.5750 -122.6047 350° North 462 532 32,000  Level Oakland Center
Thu 03:19:20 PM 40.6994 -122.6350 351° North 457 526 32,000  Level Oakland Center
Thu 03:20:32 PM 40.8528 -122.6678 350° North 461 531 32,000  Level Seattle Center
Thu 03:21:34 PM 40.9808 -122.6981 350° North 465 535 32,000  Level Seattle Center
Thu 03:22:35 PM 41.1075 -122.7286 349° North 464 534 32,000  Level Seattle Center
Thu 03:23:36 PM 41.2325 -122.7600 350° North 460 529 32,000  Level Seattle Center
Thu 03:24:37 PM 41.3592 -122.7903 350° North 460 529 32,000  Level Seattle Center
Thu 03:25:38 PM 41.4878 -122.8200 350° North 469 540 32,000  Level Seattle Center
Thu 03:26:40 PM 41.6192 -122.8503 350° North 476 548 32,000  Level Seattle Center
Thu 03:27:41 PM 41.7503 -122.8822 349° North 476 548 32,000  Level Seattle Center
Thu 03:28:42 PM 41.8806 -122.9153 352° North 475 547 32,000  Level Seattle Center
Thu 03:29:43 PM 42.0139 -122.9392 350° North 478 550 32,000  Level Seattle Center
Thu 03:30:44 PM 42.1458 -122.9717 350° North 479 551 32,000  Level Seattle Center
Thu 03:31:45 PM 42.3058 -123.0106 349° North 482 555 32,000  Level Seattle Center
Thu 03:32:47 PM 42.4386 -123.0444 350° North 485 558 32,000  Level Seattle Center
Thu 03:33:48 PM 42.5719 -123.0758 350° North 484 557 32,000  Level Seattle Center
Thu 03:34:49 PM 42.7061 -123.1086 349° North 487 560 32,000  Level Seattle Center
Thu 03:35:50 PM 42.8425 -123.1436 350° North 487 560 32,000  Level Seattle Center
Thu 03:36:51 PM 42.9769 -123.1767 350° North 490 564 32,000  Level Seattle Center
Thu 03:37:53 PM 43.1108 -123.2092 349° North 488 562 32,000  Level Seattle Center
Thu 03:38:54 PM 43.2458 -123.2447 350° North 492 566 32,000  Level Seattle Center
Thu 03:39:55 PM 43.3822 -123.2789 350° North 495 570 32,000  Level Seattle Center
Thu 03:40:57 PM 43.5181 -123.3131 350° North 496 571 32,000  Level Seattle Center
Thu 03:41:58 PM 43.6547 -123.3469 350° North 497 572 32,000  Level Seattle Center
Thu 03:42:59 PM 43.7919 -123.3803 350° North 499 574 32,000  Level Seattle Center
Thu 03:44:00 PM 43.9561 -123.4225 350° North 498 573 32,000  Level Seattle Center
Thu 03:45:01 PM 44.0717 -123.4522 350° North 501 577 32,000  Level Seattle Center
Thu 03:46:03 PM 44.2092 -123.4872 349° North 502 578 32,000  Level Seattle Center
Thu 03:47:04 PM 44.3756 -123.5306 349° North 507 583 32,000 -49 Level Seattle Center
Thu 03:48:05 PM 44.5164 -123.5672 349° North 513 590 31,900  Descending Seattle Center
Thu 03:50:07 PM 44.7997 -123.6417 341° North 516 594 32,000 33 Climbing Seattle Center
Thu 03:51:09 PM 44.9392 -123.7086 338° Northwest 511 588 32,000  Level Seattle Center
Thu 03:52:10 PM 45.0739 -123.7844 338° Northwest 511 588 32,000  Level Seattle Center
Thu 03:53:11 PM 45.2072 -123.8603 338° Northwest 514 592 32,000  Level Seattle Center
Thu 03:55:13 PM 45.4739 -124.0122 338° Northwest 517 595 32,000  Level Seattle Center
Thu 03:56:14 PM 45.6067 -124.0897 338° Northwest 516 594 32,000  Level Seattle Center
Thu 03:57:16 PM 45.7397 -124.1667 338° Northwest 516 594 32,000  Level Seattle Center
Thu 03:58:17 PM 45.8725 -124.2447 338° Northwest 517 595 32,000  Level Seattle Center
Thu 03:59:18 PM 46.0069 -124.3222 338° Northwest 520 598 32,000  Level Seattle Center
Thu 04:00:19 PM 46.1414 -124.4000 337° Northwest 520 598 32,000  Level Seattle Center
Thu 04:01:21 PM 46.2764 -124.4842 338° Northwest 526 605 32,000  Level Seattle Center
Thu 04:02:22 PM 46.4164 -124.5667 338° Northwest 527 606 32,000  Level Seattle Center
Thu 04:03:23 PM 46.5792 -124.6631 337° Northwest 527 606 32,000  Level Seattle Center
Thu 04:04:24 PM 46.7156 -124.7458 337° Northwest 530 610 32,000  Level Seattle Center
Thu 04:05:26 PM 46.8519 -124.8289 337° Northwest 530 610 32,000  Level Seattle Center
Thu 04:06:27 PM 46.9881 -124.9128 338° Northwest 531 611 32,000  Level Seattle Center
Thu 04:07:28 PM 47.1239 -124.9944 337° Northwest 529 609 32,000  Level Seattle Center
Thu 04:08:29 PM 47.2594 -125.0803 338° Northwest 529 609 32,000  Level Seattle Center
Thu 04:09:31 PM 47.3961 -125.1639 337° Northwest 530 610 32,000  Level Seattle Center
Thu 04:10:32 PM 47.5322 -125.2492 337° Northwest 530 610 32,000  Level Seattle Center
Thu 04:11:33 PM 47.6683 -125.3350 337° Northwest 531 611 32,000  Level Seattle Center
Thu 04:12:34 PM 47.8056 -125.4217 337° Northwest 532 612 32,000  Level Seattle Center
Thu 04:13:35 PM 47.9428 -125.5083 337° Northwest 533 613 32,000  Level Seattle Center
Thu 04:14:37 PM 48.0811 -125.5956 337° Northwest 536 617 32,000  Level Seattle Center
Thu 04:15:38 PM 48.2475 -125.7028 337° Northwest 539 620 32,000  Level Seattle Center
Thu 04:16:39 PM 48.3861 -125.7933 331° Northwest 540 621 32,000  Level Seattle Center
Thu 04:17:51 PM 48.5333 -125.9167 338° Northwest 540 621 32,000  Level Vancouver Center
Thu 04:18:51 PM 48.6667 -126.0000 340° North 540 621 32,000  Level Vancouver Center
Thu 04:19:51 PM 48.8167 -126.0833 334° Northwest 540 621 32,000  Level Vancouver Center
Thu 04:20:51 PM 48.9500 -126.1833 338° Northwest 540 621 32,000  Level Vancouver Center
Thu 04:21:51 PM 49.0833 -126.2667 340° North 560 644 32,000  Level Vancouver Center
Thu 04:22:51 PM 49.2333 -126.3500 330° Northwest 540 621 32,000  Level Vancouver Center
Thu 04:23:51 PM 49.3667 -126.4667 335° Northwest 540 621 32,000  Level Vancouver Center
Thu 04:24:51 PM 49.4833 -126.5500 333° Northwest 540 621 32,000  Level Vancouver Center
Thu 04:25:51 PM 49.6333 -126.6667 338° Northwest 540 621 32,000  Level Vancouver Center
Thu 04:26:51 PM 49.7667 -126.7500 340° North 540 621 32,000  Level Vancouver Center
Thu 04:27:51 PM 49.9167 -126.8333 331° Northwest 540 621 32,000  Level Vancouver Center
Thu 04:28:51 PM 50.0500 -126.9500 340° North 540 621 32,000  Level Vancouver Center
Thu 04:29:51 PM 50.2000 -127.0333 338° Northwest 550 633 32,000  Level Vancouver Center
Thu 04:30:51 PM 50.3333 -127.1167 328° Northwest 550 633 32,000  Level Vancouver Center
Thu 04:31:51 PM 50.4500 -127.2333 341° North 550 633 32,000  Level Vancouver Center
Thu 04:32:51 PM 50.6000 -127.3167 321° Northwest 550 633 32,000  Level Vancouver Center
Thu 04:33:51 PM 50.7167 -127.4667 318° Northwest 540 621 32,000  Level Vancouver Center
Thu 04:34:51 PM 50.8333 -127.6333 314° West 530 610 32,000  Level Vancouver Center
Thu 04:35:51 PM 50.9333 -127.8000 314° West 530 610 32,000  Level Vancouver Center
Thu 04:36:51 PM 51.0333 -127.9667 318° Northwest 530 610 32,000  Level Vancouver Center
Thu 04:37:51 PM 51.1500 -128.1333 309° West 530 610 32,000  Level Vancouver Center
Thu 04:38:51 PM 51.2333 -128.3000 311° West 530 610 32,000  Level Vancouver Center
Thu 04:39:51 PM 51.3333 -128.4833 318° Northwest 530 610 32,000  Level Vancouver Center
Thu 04:40:51 PM 51.4500 -128.6500 314° West 530 610 32,000  Level Vancouver Center
Thu 04:41:51 PM 51.5500 -128.8167 311° West 530 610 32,000  Level Vancouver Center
Thu 04:42:51 PM 51.6500 -129.0000 314° West 530 610 32,000  Level Vancouver Center
Thu 04:43:51 PM 51.7500 -129.1667 311° West 530 610 32,000  Level Vancouver Center
Thu 04:44:51 PM 51.8500 -129.3500 321° Northwest 530 610 32,000  Level Vancouver Center
Thu 04:45:51 PM 51.9500 -129.4833 312° West 530 610 32,000  Level Vancouver Center
Thu 04:46:51 PM 52.0500 -129.6667 312° West 520 598 32,000  Level Vancouver Center
Thu 04:47:51 PM 52.1500 -129.8500 314° West 520 598 32,000  Level Vancouver Center
Thu 04:48:51 PM 52.2500 -130.0167 312° West 520 598 32,000  Level Vancouver Center
Thu 04:49:51 PM 52.3500 -130.2000 312° West 520 598 32,000  Level Vancouver Center
Thu 04:50:51 PM 52.4500 -130.3833 309° West 520 598 32,000  Level Vancouver Center
Thu 04:51:51 PM 52.5333 -130.5500 316° Northwest 520 598 32,000  Level Vancouver Center
Thu 04:52:51 PM 52.6500 -130.7333 313° West 520 598 32,000  Level Vancouver Center
Thu 04:53:51 PM 52.7333 -130.8833 317° Northwest 520 598 32,000  Level Vancouver Center
Thu 04:54:51 PM 52.8500 -131.0667 307° West 520 598 32,000  Level Vancouver Center
Thu 04:55:51 PM 52.9333 -131.2500 312° West 520 598 32,000  Level Vancouver Center
Thu 04:56:51 PM 53.0333 -131.4333 312° West 520 598 32,000  Level Vancouver Center
Thu 04:57:51 PM 53.1333 -131.6167 307° West 520 598 32,000  Level Vancouver Center
Thu 04:58:51 PM 53.2167 -131.8000 310° West 520 598 32,000  Level Vancouver Center
Thu 04:59:51 PM 53.3000 -131.9667 323° Northwest 510 587 32,000  Level Vancouver Center
Thu 05:00:54 PM 53.4167 -132.1167 303° West 520 598 32,000  Level Anchorage Center
Thu 05:01:51 PM 53.5000 -132.3333 310° West 520 598 32,000  Level Vancouver Center
Thu 05:02:51 PM 53.6000 -132.5333 315° West 520 598 32,000  Level Vancouver Center
Thu 05:03:51 PM 53.7000 -132.7000 317° Northwest 520 598 32,000  Level Vancouver Center
Thu 05:04:51 PM 53.8167 -132.8833 313° West 520 598 32,000  Level Vancouver Center
Thu 05:05:56 PM 53.9000 -133.0333 313° West 520 598 32,000  Level Anchorage Center
Thu 05:06:56 PM 54.0000 -133.2167 313° West 520 598 32,000  Level Anchorage Center
Thu 05:07:57 PM 54.1000 -133.4000 308° West 520 598 32,000  Level Anchorage Center
Thu 05:08:57 PM 54.1833 -133.5833 303° West 510 587 32,000  Level Anchorage Center
Thu 05:09:57 PM 54.2667 -133.8000 300° West 510 587 32,000  Level Anchorage Center
Thu 05:10:57 PM 54.3333 -134.0000 287° West 510 587 32,000  Level Anchorage Center
Thu 05:11:51 PM 54.3833 -134.2833 302° West 520 598 32,000  Level Vancouver Center
Thu 05:12:51 PM 54.4500 -134.4667 298° West 520 598 32,000  Level Vancouver Center
Thu 05:13:51 PM 54.5167 -134.6833 296° West 510 587 32,000  Level Vancouver Center
Thu 05:14:51 PM 54.5833 -134.9167 304° West 510 587 32,000  Level Vancouver Center
Thu 05:15:51 PM 54.6667 -135.1333 292° West 510 587 32,000 150 Level Vancouver Center
Thu 05:16:51 PM 54.7167 -135.3500 300° West 510 587 32,300 600 Climbing Vancouver Center
Thu 05:17:51 PM 54.7833 -135.5500 292° West 510 587 33,200 850 Climbing Vancouver Center
Thu 05:18:51 PM 54.8333 -135.7667 302° West 510 587 34,000 400 Climbing Vancouver Center
Thu 05:19:51 PM 54.9167 -136.0000 298° West 510 587 34,000  Level Vancouver Center
Thu 05:20:51 PM 54.9833 -136.2167 297° West 510 587 34,000  Level Vancouver Center
Thu 05:21:51 PM 55.0500 -136.4500 298° West 510 587 34,000  Level Vancouver Center
Thu 05:22:51 PM 55.1000 -136.6167 292° West 510 587 34,000  Level Vancouver Center
Thu 05:23:51 PM 55.1500 -136.8333 297° West 510 587 34,000  Level Vancouver Center
Thu 05:24:51 PM 55.2167 -137.0667 292° West 510 587 34,000  Level Vancouver Center
Thu 05:25:51 PM 55.2667 -137.2833 306° West 510 587 34,000  Level Vancouver Center
Thu 05:27:04 PM 55.3500 -137.4833 291° West 500 575 34,000  Level Anchorage Center
Thu 05:27:51 PM 55.4000 -137.7167 291° West 510 587 34,000  Level Vancouver Center
Thu 05:28:51 PM 55.4500 -137.9500 297° West 510 587 34,000  Level Vancouver Center
Thu 05:29:51 PM 55.5167 -138.1833 292° West 510 587 34,000  Level Vancouver Center
Thu 05:30:51 PM 55.5667 -138.4000 297° West 510 587 34,000  Level Vancouver Center
Thu 05:31:51 PM 55.6333 -138.6333 291° West 510 587 34,000  Level Vancouver Center
Thu 05:32:51 PM 55.6833 -138.8667 291° West 510 587 34,000  Level Vancouver Center
Thu 05:33:51 PM 55.7333 -139.1000 303° West 510 587 34,000  Level Vancouver Center
Thu 05:34:51 PM 55.8167 -139.3333 291° West 510 587 34,000  Level Vancouver Center
Thu 05:35:51 PM 55.8667 -139.5667 303° West 520 598 34,000  Level Vancouver Center
Thu 05:37:07 PM 55.9500 -139.8000 293° West 500 575 34,000  Level Anchorage Center
Thu 05:38:07 PM 56.0000 -140.0167 291° West 500 575 34,000  Level Anchorage Center
Thu 05:39:08 PM 56.0500 -140.2500 284° West 490 564 34,000  Level Anchorage Center
Thu 05:39:51 PM 56.0833 -140.4833 305° West 500 575 34,000  Level Vancouver Center
Thu 05:41:08 PM 56.1667 -140.7000 291° West 500 575 34,000  Level Anchorage Center
Thu 05:42:09 PM 56.2167 -140.9333 297° West 490 564 34,000  Level Anchorage Center
Thu 05:43:09 PM 56.2833 -141.1667 294° West 490 564 34,000  Level Anchorage Center
Thu 05:44:10 PM 56.3333 -141.3667 291° West 490 564 34,000  Level Anchorage Center
Thu 05:45:10 PM 56.3833 -141.6000 293° West 480 552 34,000  Level Anchorage Center
Thu 05:46:10 PM 56.4333 -141.8167 291° West 490 564 34,000  Level Anchorage Center
Thu 05:47:11 PM 56.4833 -142.0500 293° West 490 564 34,000  Level Anchorage Center
Thu 05:48:11 PM 56.5333 -142.2667 291° West 480 552 34,000  Level Anchorage Center
Thu 05:49:12 PM 56.5833 -142.5000 298° West 480 552 34,000  Level Anchorage Center
Thu 05:50:12 PM 56.6500 -142.7333 291° West 490 564 34,000  Level Anchorage Center
Thu 05:51:12 PM 56.7000 -142.9667 291° West 490 564 34,000  Level Anchorage Center
Thu 05:52:13 PM 56.7500 -143.2000 291° West 480 552 34,000  Level Anchorage Center
Thu 05:53:13 PM 56.8000 -143.4333 291° West 490 564 34,000  Level Anchorage Center
Thu 05:54:13 PM 56.8500 -143.6667 292° West 490 564 34,000  Level Anchorage Center
Thu 05:55:14 PM 56.9000 -143.9000 292° West 480 552 34,000  Level Anchorage Center
Thu 05:56:14 PM 56.9500 -144.1333 285° West 490 564 34,000  Level Anchorage Center
Thu 05:57:14 PM 56.9833 -144.3667 292° West 480 552 34,000  Level Anchorage Center
Thu 05:58:15 PM 57.0333 -144.6000 290° West 490 564 34,000  Level Anchorage Center
Thu 05:59:15 PM 57.0833 -144.8500 293° West 490 564 34,000  Level Anchorage Center
Thu 06:00:15 PM 57.1333 -145.0667 290° West 480 552 34,000  Level Anchorage Center
Thu 06:01:16 PM 57.1833 -145.3167 292° West 480 552 34,000  Level Anchorage Center
Thu 06:02:16 PM 57.2333 -145.5500 285° West 480 552 34,000  Level Anchorage Center
Thu 06:03:17 PM 57.2667 -145.7833 290° West 490 564 34,000  Level Anchorage Center
Thu 06:04:17 PM 57.3167 -146.0333 292° West 490 564 34,000  Level Anchorage Center
Thu 06:05:17 PM 57.3667 -146.2667 285° West 480 552 34,000  Level Anchorage Center
Thu 06:06:17 PM 57.4000 -146.5000 292° West 480 552 34,000  Level Anchorage Center
Thu 06:07:18 PM 57.4500 -146.7333 291° West 480 552 34,000  Level Anchorage Center
Thu 06:08:19 PM 57.5000 -146.9833 284° West 490 564 34,000  Level Anchorage Center
Thu 06:09:19 PM 57.5333 -147.2333 292° West 490 564 34,000  Level Anchorage Center
Thu 06:10:19 PM 57.5833 -147.4667 284° West 490 564 34,000  Level Anchorage Center
Thu 06:11:19 PM 57.6167 -147.7167 292° West 480 552 34,000  Level Anchorage Center
Thu 06:12:20 PM 57.6667 -147.9500 284° West 480 552 34,000  Level Anchorage Center
Thu 06:13:20 PM 57.7000 -148.2000 291° West 490 564 34,000  Level Anchorage Center
Thu 06:14:21 PM 57.7500 -148.4500 284° West 500 575 34,000  Level Anchorage Center
Thu 06:15:21 PM 57.7833 -148.7000 291° West 500 575 34,000  Level Anchorage Center
Thu 06:16:22 PM 57.8333 -148.9500 284° West 490 564 34,000  Level Anchorage Center
Thu 06:17:22 PM 57.8667 -149.2000 291° West 490 564 34,000  Level Anchorage Center
Thu 06:18:22 PM 57.9167 -149.4500 284° West 490 564 34,000  Level Anchorage Center
Thu 06:19:23 PM 57.9500 -149.7000 284° West 500 575 34,000  Level Anchorage Center
Thu 06:20:23 PM 57.9833 -149.9500 284° West 490 564 34,000  Level Anchorage Center
Thu 06:21:23 PM 58.0167 -150.2000 284° West 490 564 34,000  Level Anchorage Center
Thu 06:22:24 PM 58.0500 -150.4500 284° West 490 564 34,000  Level Anchorage Center
Thu 06:23:24 PM 58.0833 -150.7000 287° West 490 564 34,000  Level Anchorage Center
Thu 06:24:25 PM 58.1333 -151.0167 277° West 490 564 34,000  Level Anchorage Center
Thu 06:25:25 PM 58.1500 -151.2667 284° West 500 575 34,000  Level Anchorage Center
Thu 06:26:26 PM 58.1833 -151.5167 283° West 500 575 34,000  Level Anchorage Center
Thu 06:27:26 PM 58.2167 -151.7833 285° West 500 575 34,000  Level Anchorage Center
Thu 06:28:26 PM 58.2500 -152.0167 283° West 500 575 34,000  Level Anchorage Center
Thu 06:29:27 PM 58.2833 -152.2833 284° West 500 575 34,000  Level Anchorage Center
Thu 06:30:27 PM 58.3167 -152.5333 277° West 500 575 34,000  Level Anchorage Center
Thu 06:31:27 PM 58.3333 -152.8000 284° West 500 575 34,000  Level Anchorage Center
Thu 06:32:28 PM 58.3667 -153.0667 284° West 500 575 34,000  Level Anchorage Center
Thu 06:33:28 PM 58.4000 -153.3167 284° West 500 575 34,000  Level Anchorage Center
Thu 06:34:29 PM 58.4333 -153.5833 277° West 490 564 34,000  Level Anchorage Center
Thu 06:35:29 PM 58.4500 -153.8333 284° West 500 575 34,000  Level Anchorage Center
Thu 06:36:29 PM 58.4833 -154.1000 277° West 500 575 34,000  Level Anchorage Center
Thu 06:37:29 PM 58.5000 -154.3500 284° West 490 564 34,000  Level Anchorage Center
Thu 06:38:30 PM 58.5333 -154.6167 277° West 490 564 34,000  Level Anchorage Center
Thu 06:39:30 PM 58.5500 -154.8833 284° West 490 564 34,000  Level Anchorage Center
Thu 06:40:30 PM 58.5833 -155.1333 277° West 490 564 34,000  Level Anchorage Center
Thu 06:41:31 PM 58.6000 -155.4000 284° West 490 564 34,000  Level Anchorage Center
Thu 06:42:31 PM 58.6333 -155.6500 277° West 490 564 34,000  Level Anchorage Center
Thu 06:43:31 PM 58.6500 -155.9167 282° West 490 564 34,000  Level Anchorage Center
Thu 06:44:32 PM 58.6833 -156.2333 279° West 490 564 34,000  Level Anchorage Center
Thu 06:45:32 PM 58.7000 -156.4500 277° West 500 575 34,000  Level Anchorage Center
Thu 06:46:32 PM 58.7167 -156.7167 276° West 490 564 34,000  Level Anchorage Center
Thu 06:47:33 PM 58.7333 -157.0333 278° West 490 564 34,000  Level Anchorage Center
Thu 06:48:33 PM 58.7500 -157.2667 270° West 490 564 34,000  Level Anchorage Center
Thu 06:49:34 PM 58.7500 -157.5333 277° West 490 564 34,000  Level Anchorage Center
Thu 06:50:34 PM 58.7667 -157.8000 277° West 490 564 34,000  Level Anchorage Center
Thu 06:51:34 PM 58.7833 -158.0667 270° West 490 564 34,000  Level Anchorage Center
Thu 06:52:35 PM 58.7833 -158.3167 277° West 490 564 34,000  Level Anchorage Center
Thu 06:53:36 PM 58.8000 -158.5833 277° West 490 564 34,000  Level Anchorage Center
Thu 06:54:36 PM 58.8167 -158.8500 270° West 480 552 34,000  Level Anchorage Center
Thu 06:55:36 PM 58.8167 -159.1167 277° West 490 564 34,000  Level Anchorage Center
Thu 06:56:37 PM 58.8333 -159.3667 276° West 470 541 34,000  Level Anchorage Center
Thu 06:57:37 PM 58.8500 -159.6667 270° West 490 564 34,000  Level Anchorage Center
Thu 06:58:37 PM 58.8500 -159.9333 270° West 470 541 34,000  Level Anchorage Center
Thu 06:59:38 PM 58.8500 -160.1833 277° West 470 541 34,000  Level Anchorage Center
Thu 07:00:38 PM 58.8667 -160.4333 270° West 470 541 34,000  Level Anchorage Center
Thu 07:01:38 PM 58.8667 -160.7000 277° West 480 552 34,000  Level Anchorage Center
Thu 07:02:39 PM 58.8833 -160.9500 270° West 470 541 34,000  Level Anchorage Center
Thu 07:03:39 PM 58.8833 -161.2167 270° West 480 552 34,000  Level Anchorage Center
Thu 07:04:39 PM 58.8833 -161.4667 270° West 470 541 34,000  Level Anchorage Center
Thu 07:05:40 PM 58.8833 -161.7333 277° West 480 552 34,000  Level Anchorage Center
Thu 07:06:40 PM 58.9000 -161.9833 270° West 470 541 34,000  Level Anchorage Center
Thu 07:07:41 PM 58.9000 -162.2333 270° West 470 541 34,000  Level Anchorage Center
Thu 07:08:41 PM 58.9000 -162.4833 270° West 470 541 34,000  Level Anchorage Center
Thu 07:09:41 PM 58.9000 -162.7500 270° West 470 541 34,000  Level Anchorage Center
Thu 07:10:42 PM 58.9000 -163.0000 270° West 470 541 34,000  Level Anchorage Center
Thu 07:11:42 PM 58.9000 -163.2500 270° West 470 541 34,000  Level Anchorage Center
Thu 07:12:43 PM 58.9000 -163.5000 270° West 470 541 34,000  Level Anchorage Center
Thu 07:13:43 PM 58.9000 -163.7667 270° West 470 541 34,000  Level Anchorage Center
Thu 07:14:25 PM 58.9000 -163.9667 270° West 470 541 34,000  Level Anchorage Center
Thu 07:15:25 PM 58.9000 -164.2167 270° West 470 541 34,000  Level Anchorage Center
Thu 07:16:25 PM 58.9000 -164.4667 270° West 470 541 34,000  Level Anchorage Center
Thu 07:17:25 PM 58.9000 -164.7333 270° West 460 529 34,000  Level Anchorage Center
Thu 07:18:25 PM 58.9000 -164.9833 270° West 470 541 34,000  Level Anchorage Center
Thu 07:19:25 PM 58.9000 -165.2333 270° West 480 552 34,000  Level Anchorage Center
Thu 07:20:25 PM 58.9000 -165.5000 270° West 460 529 34,000  Level Anchorage Center
Thu 07:21:25 PM 58.9000 -165.7500 263° West 470 541 34,000  Level Anchorage Center
Thu 07:22:25 PM 58.8833 -166.0000 270° West 460 529 34,000  Level Anchorage Center
Thu 07:23:25 PM 58.8833 -166.2500 270° West 460 529 34,000  Level Anchorage Center
Thu 07:24:26 PM 58.8833 -166.5000 270° West 470 541 34,000  Level Anchorage Center
Thu 07:25:26 PM 58.8833 -166.7500 270° West 460 529 34,000  Level Anchorage Center
Thu 07:26:26 PM 58.8833 -167.0000 270° West 460 529 34,000  Level Anchorage Center
Thu 07:27:26 PM 58.8833 -167.2500 263° West 460 529 34,000  Level Anchorage Center
Thu 07:28:26 PM 58.8667 -167.5000 270° West 470 541 34,000  Level Anchorage Center
Thu 07:29:26 PM 58.8667 -167.7667 270° West 470 541 34,000  Level Anchorage Center
Thu 07:30:26 PM 58.8667 -168.0167 270° West 470 541 34,000 350 Level Anchorage Center
Thu 07:31:26 PM 58.8667 -168.2833 263° West 480 552 34,700 500 Climbing Anchorage Center
Thu 07:32:26 PM 58.8500 -168.5333 270° West 470 541 35,000 150 Climbing Anchorage Center
Thu 07:33:26 PM 58.8500 -168.7833 263° West 470 541 35,000  Level Anchorage Center
Thu 07:34:26 PM 58.8333 -169.0500 277° West 470 541 35,000  Level Anchorage Center
Thu 07:35:26 PM 58.8500 -169.3000 270° West 470 541 35,000  Level Anchorage Center
Thu 07:36:26 PM 58.8500 -169.5500 263° West 470 541 35,000  Level Anchorage Center
Thu 07:37:26 PM 58.8333 -169.8167 263° West 470 541 35,000  Level Anchorage Center
Thu 07:38:26 PM 58.8167 -170.0667 270° West 480 552 35,000  Level Anchorage Center
Thu 07:39:26 PM 58.8167 -170.3333 263° West 480 552 35,000  Level Anchorage Center
Thu 07:40:26 PM 58.8000 -170.5833 270° West 470 541 35,000  Level Anchorage Center
Thu 07:41:26 PM 58.8000 -170.8500 263° West 480 552 35,000  Level Anchorage Center
Thu 07:42:26 PM 58.7833 -171.1000 263° West 480 552 35,000  Level Anchorage Center
Thu 07:43:27 PM 58.7667 -171.3667 270° West 480 552 35,000  Level Anchorage Center
Thu 07:44:27 PM 58.7667 -171.6167 263° West 480 552 35,000  Level Anchorage Center
Thu 07:45:27 PM 58.7500 -171.8667 263° West 480 552 35,000  Level Anchorage Center
Thu 07:46:27 PM 58.7333 -172.1333 263° West 480 552 35,000  Level Anchorage Center
Thu 07:47:27 PM 58.7167 -172.3833 263° West 480 552 35,000  Level Anchorage Center
Thu 07:48:27 PM 58.7000 -172.6500 270° West 490 564 35,000  Level Anchorage Center
Thu 07:49:27 PM 58.7000 -172.9000 263° West 480 552 35,000  Level Anchorage Center
Thu 07:50:27 PM 58.6833 -173.1667 263° West 480 552 35,000  Level Anchorage Center
Thu 07:51:27 PM 58.6667 -173.4167 263° West 490 564 35,000  Level Anchorage Center
Thu 07:52:27 PM 58.6500 -173.6833 263° West 480 552 35,000  Level Anchorage Center
Thu 07:53:27 PM 58.6333 -173.9333 263° West 490 564 35,000  Level Anchorage Center
Thu 07:54:28 PM 58.6167 -174.2000 270° West 490 564 35,000  Level Anchorage Center
Thu 07:55:27 PM 58.6167 -174.4667 263° West 490 564 35,000  Level Anchorage Center
Thu 07:56:28 PM 58.6000 -174.7167 263° West 480 552 35,000  Level Anchorage Center
Thu 07:57:27 PM 58.5833 -174.9833 263° West 480 552 35,000  Level Anchorage Center
Thu 07:58:27 PM 58.5667 -175.2333 263° West 490 564 35,000  Level Anchorage Center
Thu 07:59:28 PM 58.5500 -175.5000 256° West 480 552 35,000  Level Anchorage Center
Thu 08:00:28 PM 58.5167 -175.7500 263° West 490 564 35,000  Level Anchorage Center
Thu 08:01:28 PM 58.5000 -176.0167 263° West 490 564 35,000  Level Anchorage Center
Thu 08:02:28 PM 58.4833 -176.2667 257° West 490 564 35,000  Level Anchorage Center
Thu 08:03:28 PM 58.4500 -176.5333 263° West 490 564 35,000  Level Anchorage Center
Thu 08:04:28 PM 58.4333 -176.7833 253° West 490 564 35,000  Level Anchorage Center
Thu 08:05:59 PM 58.3833 -177.1000 245° Southwest 499 574 35,000  Level Anchorage Center
Thu 08:09:08 PM 58.1833 -177.9000 244° Southwest 497 572 35,000  Level Anchorage Center
Thu 08:23:01 PM 57.3167 178.9333 241° Southwest 495 570 35,000  Level Anchorage Center
Thu 08:30:20 PM 56.8333 177.3500 240° Southwest 510 587 35,000  Level Anchorage Center
Thu 08:36:52 PM 56.3500 175.8833 241° Southwest 514 592 35,000  Level Anchorage Center
Thu 08:41:45 PM 56.0000 174.7667 235° Southwest 500 575 35,000  Level Anchorage Center
Thu 08:42:45 PM 55.9333 174.6000 241° Southwest 490 564 35,000  Level Anchorage Center
Thu 08:43:46 PM 55.8500 174.3333 237° Southwest 550 633 35,000  Level Anchorage Center
Thu 08:44:45 PM 55.7833 174.1500 239° Southwest 530 610 35,000  Level Anchorage Center
Thu 08:45:45 PM 55.7000 173.9000 238° Southwest 530 610 35,000  Level Anchorage Center
Thu 08:46:45 PM 55.6167 173.6667 231° Southwest 530 610 35,000 50 Level Anchorage Center
Thu 08:47:46 PM 55.5333 173.4833 238° Southwest 530 610 35,100 198 Climbing Anchorage Center
Thu 08:48:46 PM 55.4500 173.2500 240° Southwest 520 598 35,400 300 Climbing Anchorage Center
Thu 08:49:46 PM 55.3833 173.0500 233° Southwest 540 621 35,700 300 Climbing Anchorage Center
Thu 08:50:46 PM 55.2833 172.8167 238° Southwest 540 621 36,000 150 Climbing Anchorage Center
Thu 08:51:46 PM 55.2167 172.6333 235° Southwest 540 621 36,000  Level Anchorage Center
Thu 08:52:46 PM 55.1167 172.3833 238° Southwest 540 621 36,000  Level Anchorage Center
Thu 08:53:46 PM 55.0333 172.1500 238° Southwest 540 621 36,000  Level Anchorage Center
Thu 08:54:46 PM 54.9667 171.9667 233° Southwest 540 621 36,000  Level Anchorage Center
Thu 08:55:46 PM 54.8667 171.7333 232° Southwest 550 633 36,000  Level Anchorage Center
Thu 08:56:46 PM 54.7833 171.5500 234° Southwest 540 621 36,000  Level Anchorage Center
Thu 08:57:46 PM 54.6833 171.3167 238° Southwest 550 633 36,000  Level Anchorage Center
Thu 08:58:46 PM 54.6167 171.1333 234° Southwest 550 633 36,000  Level Anchorage Center
Thu 08:59:46 PM 54.5167 170.9000 232° Southwest 560 644 36,000  Level Anchorage Center
Thu 09:00:46 PM 54.4333 170.7167 236° Southwest 560 644 36,000  Level Anchorage Center
Thu 09:01:47 PM 54.3333 170.4667 234° Southwest 560 644 36,000  Level Anchorage Center
Thu 09:02:47 PM 54.2333 170.2333 232° Southwest 560 644 36,000  Level Anchorage Center
Thu 09:03:47 PM 54.1500 170.0500 232° Southwest 560 644 36,000  Level Anchorage Center
Thu 09:04:47 PM 54.0500 169.8333 232° Southwest 560 644 36,000  Level Anchorage Center
Thu 09:05:47 PM 53.9667 169.6500 234° Southwest 550 633 36,000  Level Anchorage Center
Thu 09:06:47 PM 53.8667 169.4167 232° Southwest 560 644 36,000  Level Anchorage Center
Thu 09:07:47 PM 53.7833 169.2333 239° Southwest 560 644 36,000  Level Anchorage Center
Thu 09:08:47 PM 53.7000 169.0000 239° Southwest 530 610 36,000  Level Anchorage Center
Thu 09:09:47 PM 53.6333 168.8167 239° Southwest 540 621 36,000  Level Anchorage Center
Thu 09:10:47 PM 53.5500 168.5833 238° Southwest 550 633 36,000  Level Anchorage Center
Thu 09:13:43 PM 53.4167 168.2333 239° Southwest 530 610 36,000  Level Anchorage Center
Thu 09:18:29 PM 52.9500 166.9667 239° Southwest 532 612 36,000  Level Anchorage Center
Thu 09:32:21 PM 51.8667 164.1667 236° Southwest 517 595 36,000  Level Anchorage Center
Thu 09:35:29 PM 51.6500 163.6500 236° Southwest 513 590 36,000  Level Anchorage Center
Thu 09:46:12 PM 50.7500 161.5667 234° Southwest 507 583 36,000  Level Anchorage Center
Thu 09:52:53 PM 50.2000 160.3833 234° Southwest 518 596 36,000  Level Anchorage Center
Thu 10:00:15 PM 49.5294 158.9694 233° Southwest 518 596 36,000  Level FlightAware Transoceanic
Thu 10:01:15 PM 49.4458 158.8012 233° Southwest 518 596 36,000  Level FlightAware Transoceanic
Thu 10:02:15 PM 49.3620 158.6336 232° Southwest 518 596 36,000  Level FlightAware Transoceanic
Thu 10:03:15 PM 49.2779 158.4665 232° Southwest 518 596 36,000  Level FlightAware Transoceanic
Thu 10:04:15 PM 49.1935 158.3000 232° Southwest 518 596 36,000  Level FlightAware Transoceanic
Thu 10:05:15 PM 49.1090 158.1341 232° Southwest 518 596 36,000  Level FlightAware Transoceanic
Thu 10:06:15 PM 49.0242 157.9687 232° Southwest 518 596 36,000  Level FlightAware Transoceanic
Thu 10:07:15 PM 48.9391 157.8039 232° Southwest 518 596 36,000  Level FlightAware Transoceanic
Thu 10:08:15 PM 48.8538 157.6396 232° Southwest 518 596 36,000  Level FlightAware Transoceanic
Thu 10:09:15 PM 48.7683 157.4760 232° Southwest 518 596 36,000  Level FlightAware Transoceanic
Thu 10:10:15 PM 48.6826 157.3128 231° Southwest 518 596 36,000  Level FlightAware Transoceanic
Thu 10:11:15 PM 48.5966 157.1503 231° Southwest 518 596 36,000  Level FlightAware Transoceanic
Thu 10:12:15 PM 48.5104 156.9883 231° Southwest 518 596 36,000  Level FlightAware Transoceanic
Thu 10:13:15 PM 48.4240 156.8268 231° Southwest 518 596 36,000  Level FlightAware Transoceanic
Thu 10:14:15 PM 48.3373 156.6659 231° Southwest 518 596 36,000  Level FlightAware Transoceanic
Thu 10:15:15 PM 48.2504 156.5055 231° Southwest 518 596 36,000  Level FlightAware Transoceanic
Thu 10:16:15 PM 48.1633 156.3457 231° Southwest 518 596 36,000  Level FlightAware Transoceanic
Thu 10:17:15 PM 48.0760 156.1864 231° Southwest 518 596 36,000  Level FlightAware Transoceanic
Thu 10:18:15 PM 47.9885 156.0276 230° Southwest 518 596 36,000  Level FlightAware Transoceanic
Thu 10:19:15 PM 47.9007 155.8694 230° Southwest 518 596 36,000  Level FlightAware Transoceanic
Thu 10:20:15 PM 47.8128 155.7118 230° Southwest 518 596 36,000  Level FlightAware Transoceanic
Thu 10:21:15 PM 47.7246 155.5546 230° Southwest 518 596 36,000  Level FlightAware Transoceanic
Thu 10:22:15 PM 47.6362 155.3980 230° Southwest 518 596 36,000  Level FlightAware Transoceanic
Thu 10:23:15 PM 47.5475 155.2420 230° Southwest 518 596 36,000  Level FlightAware Transoceanic
Thu 10:24:15 PM 47.4587 155.0864 230° Southwest 518 596 36,000  Level FlightAware Transoceanic
Thu 10:25:15 PM 47.3697 154.9314 230° Southwest 518 596 36,000  Level FlightAware Transoceanic
Thu 10:26:15 PM 47.2804 154.7769 230° Southwest 518 596 36,000  Level FlightAware Transoceanic
Thu 10:27:15 PM 47.1910 154.6229 229° Southwest 518 596 36,000  Level FlightAware Transoceanic
Thu 10:28:15 PM 47.1013 154.4695 229° Southwest 518 596 36,000  Level FlightAware Transoceanic
Thu 10:29:15 PM 47.0115 154.3165 229° Southwest 518 596 36,000  Level FlightAware Transoceanic
Thu 10:30:15 PM 46.9214 154.1641 229° Southwest 518 596 36,000  Level FlightAware Transoceanic
Thu 10:31:15 PM 46.8311 154.0122 229° Southwest 518 596 36,000  Level FlightAware Transoceanic
Thu 10:32:15 PM 46.7407 153.8608 229° Southwest 518 596 36,000  Level FlightAware Transoceanic
Thu 10:33:15 PM 46.6500 153.7099 229° Southwest 518 596 36,000  Level FlightAware Transoceanic
Thu 10:34:15 PM 46.5591 153.5595 229° Southwest 518 596 36,000  Level FlightAware Transoceanic
Thu 10:35:15 PM 46.4681 153.4096 229° Southwest 518 596 36,000  Level FlightAware Transoceanic
Thu 10:36:15 PM 46.3768 153.2602 228° Southwest 518 596 36,000  Level FlightAware Transoceanic
Thu 10:37:15 PM 46.2854 153.1113 228° Southwest 518 596 36,000  Level FlightAware Transoceanic
Thu 10:38:15 PM 46.1981 152.9704 228° Southwest  Level FlightAware Approximate
Thu 10:39:15 PM 46.1102 152.8303 228° Southwest  Level FlightAware Approximate
Thu 10:40:15 PM 46.0222 152.6908 228° Southwest  Level FlightAware Approximate
Thu 10:41:15 PM 45.9340 152.5517 228° Southwest  Level FlightAware Approximate
Thu 10:42:15 PM 45.8456 152.4130 227° Southwest  Level FlightAware Approximate
Thu 10:43:15 PM 45.7570 152.2748 227° Southwest  Level FlightAware Approximate
Thu 10:44:15 PM 45.6683 152.1370 227° Southwest  Level FlightAware Approximate
Thu 10:45:15 PM 45.5794 151.9996 227° Southwest  Level FlightAware Approximate
Thu 10:46:15 PM 45.4904 151.8627 227° Southwest  Level FlightAware Approximate
Thu 10:47:15 PM 45.4012 151.7262 227° Southwest  Level FlightAware Approximate
Thu 10:48:15 PM 45.3118 151.5901 227° Southwest  Level FlightAware Approximate
Thu 10:49:15 PM 45.2223 151.4545 227° Southwest  Level FlightAware Approximate
Thu 10:50:15 PM 45.1326 151.3193 227° Southwest  Level FlightAware Approximate
Thu 10:51:15 PM 45.0428 151.1845 227° Southwest  Level FlightAware Approximate
Thu 10:52:15 PM 44.9527 151.0502 227° Southwest  Level FlightAware Approximate
Thu 10:53:15 PM 44.8626 150.9162 226° Southwest  Level FlightAware Approximate
Thu 10:54:15 PM 44.7723 150.7827 226° Southwest  Level FlightAware Approximate
Thu 10:55:15 PM 44.6818 150.6496 225° Southwest  Level FlightAware Approximate
Thu 10:56:15 PM 44.5899 150.5186 229° Southwest  Level FlightAware Approximate
Thu 10:57:15 PM 44.5034 150.3808 229° Southwest  Level FlightAware Approximate
Thu 10:58:15 PM 44.4167 150.2434 228° Southwest  Level FlightAware Approximate
Thu 10:59:15 PM 44.3299 150.1064 228° Southwest  Level FlightAware Approximate
Thu 11:00:15 PM 44.2429 149.9698 228° Southwest  Level FlightAware Approximate
Thu 11:01:15 PM 44.1557 149.8337 228° Southwest  Level FlightAware Approximate
Thu 11:02:15 PM 44.0684 149.6979 228° Southwest  Level FlightAware Approximate
Thu 11:03:15 PM 43.9809 149.5625 228° Southwest  Level FlightAware Approximate
Thu 11:04:15 PM 43.8933 149.4276 228° Southwest  Level FlightAware Approximate
Thu 11:05:15 PM 43.8055 149.2930 228° Southwest  Level FlightAware Approximate
Thu 11:06:15 PM 43.7175 149.1588 228° Southwest  Level FlightAware Approximate
Thu 11:07:15 PM 43.6294 149.0251 228° Southwest  Level FlightAware Approximate
Thu 11:08:15 PM 43.5411 148.8917 228° Southwest  Level FlightAware Approximate
Thu 11:09:15 PM 43.4527 148.7587 227° Southwest  Level FlightAware Approximate
Thu 11:10:15 PM 43.3641 148.6261 227° Southwest  Level FlightAware Approximate
Thu 11:11:15 PM 43.2754 148.4938 227° Southwest  Level FlightAware Approximate
Thu 11:12:15 PM 43.1865 148.3620 227° Southwest  Level FlightAware Approximate
Thu 11:13:15 PM 43.0975 148.2305 227° Southwest  Level FlightAware Approximate
Thu 11:14:15 PM 43.0083 148.0995 227° Southwest  Level FlightAware Approximate
Thu 11:15:15 PM 42.9189 147.9688 227° Southwest  Level FlightAware Approximate
Thu 11:16:15 PM 42.8294 147.8385 227° Southwest  Level FlightAware Approximate
Thu 11:17:15 PM 42.7398 147.7085 227° Southwest  Level FlightAware Approximate
Thu 11:18:15 PM 42.6500 147.5790 227° Southwest  Level FlightAware Approximate
Thu 11:19:15 PM 42.5601 147.4498 227° Southwest  Level FlightAware Approximate
Thu 11:20:15 PM 42.4700 147.3210 226° Southwest  Level FlightAware Approximate
Thu 11:21:15 PM 42.3798 147.1925 226° Southwest  Level FlightAware Approximate
Thu 11:22:15 PM 42.2895 147.0644 226° Southwest  Level FlightAware Approximate
Thu 11:23:15 PM 42.1990 146.9367 226° Southwest  Level FlightAware Approximate
Thu 11:24:15 PM 42.1083 146.8094 226° Southwest  Level FlightAware Approximate
Thu 11:25:15 PM 42.0176 146.6824 231° Southwest  Level FlightAware Approximate
Thu 11:26:15 PM 41.9343 146.5466 230° Southwest  Level FlightAware Approximate
Thu 11:27:15 PM 41.8508 146.4111 230° Southwest  Level FlightAware Approximate
Thu 11:28:15 PM 41.7672 146.2760 230° Southwest  Level FlightAware Approximate
Thu 11:29:15 PM 41.6835 146.1413 230° Southwest  Level FlightAware Approximate
Thu 11:30:15 PM 41.5996 146.0069 230° Southwest  Level FlightAware Approximate
Thu 11:31:15 PM 41.5155 145.8728 230° Southwest  Level FlightAware Approximate
Thu 11:32:15 PM 41.4313 145.7391 230° Southwest  Level FlightAware Approximate
Thu 11:33:15 PM 41.3469 145.6058 230° Southwest  Level FlightAware Approximate
Thu 11:34:15 PM 41.2624 145.4728 230° Southwest  Level FlightAware Approximate
Thu 11:35:15 PM 41.1777 145.3401 230° Southwest  Level FlightAware Approximate
Thu 11:36:15 PM 41.0928 145.2078 230° Southwest  Level FlightAware Approximate
Thu 11:37:15 PM 41.0079 145.0758 229° Southwest  Level FlightAware Approximate
Thu 11:38:15 PM 40.9227 144.9442 236° Southwest  Level FlightAware Approximate
Thu 11:39:15 PM 40.8489 144.8010 236° Southwest  Level FlightAware Approximate
Thu 11:40:15 PM 40.7748 144.6581 236° Southwest  Level FlightAware Approximate
Thu 11:41:15 PM 40.7006 144.5155 235° Southwest  Level FlightAware Approximate
Thu 11:42:15 PM 40.6262 144.3733 235° Southwest  Level FlightAware Approximate
Thu 11:43:15 PM 40.5516 144.2313 235° Southwest  Level FlightAware Approximate
Thu 11:44:15 PM 40.4769 144.0897 235° Southwest  Level FlightAware Approximate
Thu 11:45:15 PM 40.4019 143.9484 235° Southwest  Level FlightAware Approximate
Thu 11:46:15 PM 40.3269 143.8074 235° Southwest  Level FlightAware Approximate
Thu 11:47:15 PM 40.2516 143.6668 238° Southwest  Level FlightAware Approximate
Thu 11:48:15 PM 40.1825 143.5209 238° Southwest  Level FlightAware Approximate
Thu 11:49:15 PM 40.1133 143.3753 238° Southwest  Level FlightAware Approximate
Thu 11:50:15 PM 40.0439 143.2300 238° Southwest  Level FlightAware Approximate
Thu 11:51:15 PM 39.9743 143.0850 238° Southwest  Level FlightAware Approximate
Thu 11:52:15 PM 39.9045 142.9403 238° Southwest  Level FlightAware Approximate
Thu 11:53:15 PM 39.8345 142.7959 238° Southwest  Level FlightAware Approximate
Thu 11:54:15 PM 39.7644 142.6518 238° Southwest  Level FlightAware Approximate
Thu 11:55:15 PM 39.6940 142.5080 238° Southwest  Level FlightAware Approximate
Thu 11:56:15 PM 39.6235 142.3645 237° Southwest  Level FlightAware Approximate
Thu 11:57:15 PM 39.5528 142.2213 237° Southwest  Level FlightAware Approximate
Thu 11:58:15 PM 39.4819 142.0784 237° Southwest  Level FlightAware Approximate
Thu 11:59:15 PM 39.4109 141.9357 237° Southwest  Level FlightAware Approximate
Fri 12:00:15 AM 39.3397 141.7934 237° Southwest  Level FlightAware Approximate
Fri 12:01:15 AM 39.2683 141.6514 237° Southwest  Level FlightAware Approximate
Fri 12:02:15 AM 39.1967 141.5096 237° Southwest  Level FlightAware Approximate
Fri 12:03:15 AM 39.1250 141.3684 237° Southwest  Level FlightAware Approximate
Fri 12:04:15 AM 39.0530 141.2276 237° Southwest  Level FlightAware Approximate
Fri 12:05:15 AM 38.9807 141.0872 236° Southwest  Level FlightAware Approximate
Fri 12:06:15 AM 38.9083 140.9470 236° Southwest  Level FlightAware Approximate
Fri 12:07:15 AM 38.8357 140.8071 236° Southwest  Level FlightAware Approximate
Fri 12:08:15 AM 38.7630 140.6675 236° Southwest  Level FlightAware Approximate
Fri 12:09:15 AM 38.6901 140.5282 236° Southwest  Level FlightAware Approximate
Fri 12:10:15 AM 38.6170 140.3892 236° Southwest  Level FlightAware Approximate
Fri 12:11:15 AM 38.5438 140.2504 236° Southwest  Level FlightAware Approximate
Fri 12:12:15 AM 38.4703 140.1120 236° Southwest  Level FlightAware Approximate
Fri 12:13:15 AM 38.3968 139.9738 236° Southwest  Level FlightAware Approximate
Fri 12:14:15 AM 38.3231 139.8359 239° Southwest  Level FlightAware Approximate
Fri 12:15:15 AM 38.2556 139.6930 239° Southwest  Level FlightAware Approximate
Fri 12:16:15 AM 38.1879 139.5504 239° Southwest  Level FlightAware Approximate
Fri 12:17:15 AM 38.1201 139.4081 239° Southwest  Level FlightAware Approximate
Fri 12:18:15 AM 38.0521 139.2660 239° Southwest  Level FlightAware Approximate
Fri 12:19:15 AM 37.9839 139.1242 227° Southwest  Level FlightAware Approximate
Fri 12:20:15 AM 37.8959 139.0057 241° Southwest  Level FlightAware Approximate
Fri 12:21:15 AM 37.8322 138.8609 241° Southwest  Level FlightAware Approximate
Fri 12:22:15 AM 37.7683 138.7164 241° Southwest  Level FlightAware Approximate
Fri 12:23:15 AM 37.7042 138.5721 241° Southwest  Level FlightAware Approximate
Fri 12:24:15 AM 37.6400 138.4280 242° Southwest  Level FlightAware Approximate
Fri 12:25:15 AM 37.5792 138.2817 242° Southwest  Level FlightAware Approximate
Fri 12:26:15 AM 37.5182 138.1357 242° Southwest  Level FlightAware Approximate
Fri 12:27:15 AM 37.4571 137.9898 242° Southwest  Level FlightAware Approximate
Fri 12:28:15 AM 37.3957 137.8443 245° Southwest  Level FlightAware Approximate
Fri 12:29:15 AM 37.3409 137.6947 245° Southwest  Level FlightAware Approximate
Fri 12:30:15 AM 37.2859 137.5454 245° Southwest  Level FlightAware Approximate
Fri 12:31:15 AM 37.2308 137.3963 245° Southwest  Level FlightAware Approximate
Fri 12:32:15 AM 37.1754 137.2474 245° Southwest  Level FlightAware Approximate
Fri 12:33:15 AM 37.1199 137.0987 245° Southwest  Level FlightAware Approximate
Fri 12:34:15 AM 37.0641 136.9503 245° Southwest  Level FlightAware Approximate
Fri 12:35:15 AM 37.0082 136.8020 245° Southwest  Level FlightAware Approximate
Fri 12:36:15 AM 36.9521 136.6540 258° West  Level FlightAware Approximate
Fri 12:37:15 AM 36.9257 136.4937 258° West  Level FlightAware Approximate
Fri 12:38:15 AM 36.8991 136.3334 258° West  Level FlightAware Approximate
Fri 12:39:15 AM 36.8723 136.1732 258° West  Level FlightAware Approximate
Fri 12:40:15 AM 36.8452 136.0132 258° West  Level FlightAware Approximate
Fri 12:41:15 AM 36.8180 135.8533 258° West  Level FlightAware Approximate
Fri 12:42:15 AM 36.7905 135.6935 258° West  Level FlightAware Approximate
Fri 12:43:15 AM 36.7628 135.5338 258° West  Level FlightAware Approximate
Fri 12:44:15 AM 36.7349 135.3742 258° West  Level FlightAware Approximate
Fri 12:45:15 AM 36.7068 135.2147 262° West  Level FlightAware Approximate
Fri 12:46:15 AM 36.6874 135.0533 261° West  Level FlightAware Approximate
Fri 12:47:15 AM 36.6678 134.8920 261° West  Level FlightAware Approximate
Fri 12:48:15 AM 36.6479 134.7307 261° West  Level FlightAware Approximate
Fri 12:49:15 AM 36.6279 134.5695 268° West  Level FlightAware Approximate
Fri 12:50:15 AM 36.6228 134.4066 268° West  Level FlightAware Approximate
Fri 12:51:15 AM 36.6175 134.2437 268° West  Level FlightAware Approximate
Fri 12:52:15 AM 36.6125 134.0807 271° West  Level FlightAware Approximate
Fri 12:53:15 AM 36.6149 133.9177 271° West  Level FlightAware Approximate
Fri 12:54:15 AM 36.6171 133.7547 271° West  Level FlightAware Approximate
Fri 12:55:15 AM 36.6191 133.5916 279° West  Level FlightAware Approximate
Fri 12:56:15 AM 36.6404 133.4308 279° West  Level FlightAware Approximate
Fri 12:57:15 AM 36.6616 133.2698 280° West  Level FlightAware Approximate
Fri 12:58:15 AM 36.6839 133.1090 280° West  Level FlightAware Approximate
Fri 12:59:15 AM 36.7059 132.9481 280° West  Level FlightAware Approximate
Fri 01:00:15 AM 36.7277 132.7871 280° West  Level FlightAware Approximate
Fri 01:01:15 AM 36.7493 132.6260 279° West  Level FlightAware Approximate
Fri 01:02:15 AM 36.7707 132.4649 279° West  Level FlightAware Approximate
Fri 01:03:15 AM 36.7919 132.3036 280° West  Level FlightAware Approximate
Fri 01:04:15 AM 36.8135 132.1424 279° West  Level FlightAware Approximate
Fri 01:05:15 AM 36.8349 131.9811 280° West  Level FlightAware Approximate
Fri 01:06:15 AM 36.8569 131.8199 280° West  Level FlightAware Approximate
Fri 01:07:15 AM 36.8786 131.6586 280° West  Level FlightAware Approximate
Fri 01:08:15 AM 36.9001 131.4972 279° West  Level FlightAware Approximate
Fri 01:09:15 AM 36.9214 131.3357 279° West  Level FlightAware Approximate
Fri 01:10:15 AM 36.9425 131.1741 279° West  Level FlightAware Approximate
Fri 01:11:15 AM 36.9633 131.0124 279° West  Level FlightAware Approximate
Fri 01:12:15 AM 36.9840 130.8506 279° West  Level FlightAware Approximate
Fri 01:13:15 AM 37.0044 130.6888 279° West  Level FlightAware Approximate
Fri 01:14:15 AM 37.0246 130.5269 279° West  Level FlightAware Approximate
Fri 01:15:15 AM 37.0445 130.3648 279° West  Level FlightAware Approximate
Fri 01:16:15 AM 37.0643 130.2027 279° West  Level FlightAware Approximate
Fri 01:17:15 AM 37.0838 130.0405 279° West  Level FlightAware Approximate
Fri 01:18:15 AM 37.1031 129.8783 278° West  Level FlightAware Approximate
Fri 01:19:15 AM 37.1222 129.7159 278° West  Level FlightAware Approximate
Fri 01:20:15 AM 37.1411 129.5535 278° West  Level FlightAware Approximate
Fri 01:21:15 AM 37.1597 129.3909 278° West  Level FlightAware Approximate
Fri 01:22:15 AM 37.1782 129.2283 278° West  Level FlightAware Approximate
Fri 01:23:15 AM 37.1964 129.0656 278° West  Level FlightAware Approximate
Fri 01:24:15 AM 37.2143 128.9029 278° West  Level FlightAware Approximate
Fri 01:25:15 AM 37.2321 128.7400 278° West  Level FlightAware Approximate
Fri 01:26:15 AM 37.2496 128.5771 278° West  Level FlightAware Approximate
Fri 01:27:15 AM 37.2669 128.4141 278° West  Level FlightAware Approximate
Fri 01:28:15 AM 37.2840 128.2511 277° West  Level FlightAware Approximate
Fri 01:29:15 AM 37.3009 128.0879 277° West  Level FlightAware Approximate
Fri 01:30:15 AM 37.3175 127.9247 277° West  Level FlightAware Approximate
Fri 01:31:15 AM 37.3339 127.7614 277° West  Level FlightAware Approximate
Fri 01:32:15 AM 37.3501 127.5981 277° West  Level FlightAware Approximate
Fri 01:33:15 AM 37.3662 127.4340 277° West  Level FlightAware Approximate
Fri 01:34:15 AM 37.3820 127.2698 277° West  Level FlightAware Approximate
Fri 01:35:15 AM 37.3975 127.1055 277° West  Level FlightAware Approximate
Fri 01:36:15 AM 37.4129 126.9411 277° West  Level FlightAware Approximate
Fri 01:37:15 AM 37.4280 126.7767 268° West  Level FlightAware Approximate
Fri 01:38:15 AM 37.4232 126.6138 293° West  Level FlightAware Approximate
Fri 01:39:15 AM 37.4740 126.4614 240° Southwest  Level FlightAware Approximate
Fri 01:40:15 AM 37.4088 126.3179 114° Southeast  Level Estimated
Fri 01:41:15 AM 35.8413 130.4910 298° West  Level FlightAware Approximate
Fri 01:42:15 AM 35.9029 130.3479 298° West  Level FlightAware Approximate
Fri 01:43:15 AM 35.9644 130.2047 298° West  Level FlightAware Approximate
Fri 01:44:15 AM 36.0257 130.0612 298° West  Level FlightAware Approximate
Fri 01:45:15 AM 36.0866 129.9180 298° West  Level FlightAware Approximate
Fri 01:46:15 AM 36.1473 129.7745 298° West  Level FlightAware Approximate
Fri 01:47:15 AM 36.2079 129.6307 298° West  Level FlightAware Approximate
Fri 01:48:15 AM 36.2683 129.4868 297° West  Level FlightAware Approximate
Fri 01:49:15 AM 36.3286 129.3426 297° West  Level FlightAware Approximate
Fri 01:50:15 AM 36.3886 129.1983 297° West  Level FlightAware Approximate
Fri 01:51:15 AM 36.4485 129.0536 297° West  Level FlightAware Approximate
Fri 01:52:15 AM 36.5082 128.9088 297° West  Level FlightAware Approximate
Fri 01:53:15 AM 36.5678 128.7638 297° West  Level FlightAware Approximate
Fri 01:54:15 AM 36.6272 128.6185 297° West  Level FlightAware Approximate
Fri 01:55:15 AM 36.6863 128.4730 297° West  Level FlightAware Approximate
Fri 01:56:15 AM 36.7453 128.3273 297° West  Level FlightAware Approximate
Fri 01:57:15 AM 36.8042 128.1813 297° West  Level FlightAware Approximate
Fri 01:58:15 AM 36.8628 128.0351 297° West  Level FlightAware Approximate
Fri 01:59:15 AM 36.9213 127.8887 296° West  Level FlightAware Approximate
Fri 02:00:15 AM 36.9796 127.7421 296° West  Level FlightAware Approximate
Fri 02:01:15 AM 37.0377 127.5953 296° West  Level FlightAware Approximate
Fri 02:02:15 AM 37.0957 127.4482 296° West  Level FlightAware Approximate
Fri 02:03:15 AM 37.1534 127.3009 296° West  Level FlightAware Approximate
Fri 02:04:15 AM 37.2110 127.1534 296° West  Level FlightAware Approximate
Fri 02:05:15 AM 37.2684 127.0056 296° West  Level FlightAware Approximate
Fri 02:06:15 AM 37.3256 126.8577 296° West  Level FlightAware Approximate
Fri 02:07:15 AM 37.3826 126.7095 296° West  Level FlightAware Approximate
Fri 02:08:15 AM 37.4394 126.5610 293° West  Level FlightAware Approximate
Fri 02:09:15 AM 37.4833 126.4333 136° Southeast  Level FlightAware Approximate
Fri 02:10:15 AM 37.3887 126.5472 320° Northwest  Level Estimated
Fri 02:11:15 AM 37.4766 126.4536 198° South  Level FlightAware Approximate
Fri 02:12:15 AM 37.3522 126.4022 18° North  Level Estimated
Fri 02:13:15 AM 37.4766 126.4536 18° North  Level Estimated

Login

Don't have an account? Register now (free) for customized features, flight alerts, and more!